PWSweather.com
Personal Weather Stations
Station Observations
KTXPLANO60
Highlands Of Russell Park, Plano, TX 75025

Highlands Of Russell ParkPlano, TX 75025

Lat: 33.10431671, Lon: -96.75176239

Elevation: 761

Station Type: Davis Wireless VP2 Plus

http://www.planoweather.com

High Low Average
Temperature 96.4°F35.8°C 75.3°F24.1°C 85.0°F29.4°C
Dew Point 75.5°F24.2°C 68.6°F20.3°C 72.6°F22.6°C
Winds 9.2 mph 14.8 kmh Calm Calm 3.0 mph SE4.8 kmh SE
Wind Gusts 13.8 mph22.2 kmh -- 5.0 mph8.0 kmh
Humidity 90% 42% 69%
Pressure 30.00 in1015.9 mb 29.87 in1011.5 mb -
Precipitation 0.00 in0.0 mm - -
Hour Temp Dew Point Humidity Winds Wind Gusts Pressure Precip Precip Rate Daily Precip Total
12:00 AM 76.7°F24.8°C 72.9°F22.7°C 88% 1.2 mph S1.9 kmh S 1.2 mph1.9 kmh 29.96 in1014.6 mb - 0.00 in0.0 mm 0.00 in0.0 mm
12:10 AM 76.6°F24.8°C 72.8°F22.7°C 88% Calm Calm 1.2 mph1.9 kmh 29.96 in1014.6 mb - 0.00 in0.0 mm 0.00 in0.0 mm
12:20 AM 76.5°F24.7°C 72.7°F22.6°C 88% Calm Calm -- 29.97 in1014.9 mb - 0.00 in0.0 mm 0.00 in0.0 mm
12:30 AM 76.3°F24.6°C 72.5°F22.5°C 88% Calm Calm -- 29.97 in1014.9 mb - 0.00 in0.0 mm 0.00 in0.0 mm
12:40 AM 76.4°F24.7°C 72.9°F22.7°C 89% Calm Calm -- 29.97 in1014.9 mb - 0.00 in0.0 mm 0.00 in0.0 mm
12:50 AM 76.3°F24.6°C 72.8°F22.7°C 89% Calm Calm -- 29.97 in1014.9 mb - 0.00 in0.0 mm 0.00 in0.0 mm
01:00 AM 76.3°F24.6°C 72.8°F22.7°C 89% 1.2 mph SE1.9 kmh SE 1.2 mph1.9 kmh 29.96 in1014.6 mb - 0.00 in0.0 mm 0.00 in0.0 mm
01:10 AM 76.3°F24.6°C 72.8°F22.7°C 89% 1.2 mph E1.9 kmh E 3.5 mph5.6 kmh 29.96 in1014.6 mb - 0.00 in0.0 mm 0.00 in0.0 mm
01:20 AM 76.4°F24.7°C 72.9°F22.7°C 89% 2.3 mph E3.7 kmh E 4.6 mph7.4 kmh 29.96 in1014.6 mb - 0.00 in0.0 mm 0.00 in0.0 mm
01:30 AM 76.5°F24.7°C 72.7°F22.6°C 88% 2.3 mph SE3.7 kmh SE 4.6 mph7.4 kmh 29.96 in1014.6 mb - 0.00 in0.0 mm 0.00 in0.0 mm
01:40 AM 76.5°F24.7°C 72.7°F22.6°C 88% 2.3 mph ESE3.7 kmh ESE 4.6 mph7.4 kmh 29.96 in1014.6 mb - 0.00 in0.0 mm 0.00 in0.0 mm
01:50 AM 76.5°F24.7°C 72.7°F22.6°C 88% 3.5 mph ESE5.6 kmh ESE 3.5 mph5.6 kmh 29.96 in1014.6 mb - 0.00 in0.0 mm 0.00 in0.0 mm
02:00 AM 76.6°F24.8°C 72.4°F22.4°C 87% 2.3 mph ESE3.7 kmh ESE 3.5 mph5.6 kmh 29.96 in1014.6 mb - 0.00 in0.0 mm 0.00 in0.0 mm
02:10 AM 76.6°F24.8°C 72.4°F22.4°C 87% 3.5 mph SE5.6 kmh SE 3.5 mph5.6 kmh 29.95 in1014.2 mb - 0.00 in0.0 mm 0.00 in0.0 mm
02:20 AM 76.5°F24.7°C 72.3°F22.4°C 87% 2.3 mph SE3.7 kmh SE 4.6 mph7.4 kmh 29.95 in1014.2 mb - 0.00 in0.0 mm 0.00 in0.0 mm
02:30 AM 76.3°F24.6°C 72.1°F22.3°C 87% 2.3 mph SE3.7 kmh SE 3.5 mph5.6 kmh 29.96 in1014.6 mb - 0.00 in0.0 mm 0.00 in0.0 mm
02:40 AM 76.1°F24.5°C 72.3°F22.4°C 88% 2.3 mph SE3.7 kmh SE 2.3 mph3.7 kmh 29.95 in1014.2 mb - 0.00 in0.0 mm 0.00 in0.0 mm
02:50 AM 75.9°F24.4°C 72.1°F22.3°C 88% Calm Calm -- 29.95 in1014.2 mb - 0.00 in0.0 mm 0.00 in0.0 mm
03:00 AM 75.8°F24.3°C 72.0°F22.2°C 88% Calm Calm -- 29.95 in1014.2 mb - 0.00 in0.0 mm 0.00 in0.0 mm
03:10 AM 75.7°F24.3°C 72.2°F22.3°C 89% Calm Calm -- 29.95 in1014.2 mb - 0.00 in0.0 mm 0.00 in0.0 mm
03:20 AM 75.6°F24.2°C 72.1°F22.3°C 89% Calm Calm -- 29.95 in1014.2 mb - 0.00 in0.0 mm 0.00 in0.0 mm
03:30 AM 75.4°F24.1°C 71.9°F22.2°C 89% Calm Calm -- 29.95 in1014.2 mb - 0.00 in0.0 mm 0.00 in0.0 mm
03:40 AM 75.3°F24.1°C 71.8°F22.1°C 89% Calm Calm 2.3 mph3.7 kmh 29.95 in1014.2 mb - 0.00 in0.0 mm 0.00 in0.0 mm
03:50 AM 75.3°F24.1°C 71.8°F22.1°C 89% Calm Calm -- 29.95 in1014.2 mb - 0.00 in0.0 mm 0.00 in0.0 mm
04:00 AM 75.4°F24.1°C 71.9°F22.2°C 89% Calm Calm -- 29.95 in1014.2 mb - 0.00 in0.0 mm 0.00 in0.0 mm
04:10 AM 75.4°F24.1°C 71.9°F22.2°C 89% Calm Calm -- 29.96 in1014.6 mb - 0.00 in0.0 mm 0.00 in0.0 mm
04:20 AM 75.4°F24.1°C 71.9°F22.2°C 89% Calm Calm -- 29.96 in1014.6 mb - 0.00 in0.0 mm 0.00 in0.0 mm
04:30 AM 75.3°F24.1°C 71.9°F22.2°C 89% Calm Calm -- 29.96 in1014.6 mb - 0.00 in0.0 mm 0.00 in0.0 mm
04:40 AM 75.3°F24.1°C 71.8°F22.1°C 89% Calm Calm -- 29.96 in1014.6 mb - 0.00 in0.0 mm 0.00 in0.0 mm
04:50 AM 75.3°F24.1°C 72.2°F22.3°C 90% Calm Calm -- 29.96 in1014.6 mb - 0.00 in0.0 mm 0.00 in0.0 mm
05:00 AM 75.3°F24.1°C 72.2°F22.3°C 90% Calm Calm -- 29.96 in1014.6 mb - 0.00 in0.0 mm 0.00 in0.0 mm
05:10 AM 75.3°F24.1°C 72.2°F22.3°C 90% Calm Calm 2.3 mph3.7 kmh 29.96 in1014.6 mb - 0.00 in0.0 mm 0.00 in0.0 mm
05:20 AM 75.3°F24.1°C 72.2°F22.3°C 90% Calm Calm 2.3 mph3.7 kmh 29.96 in1014.6 mb - 0.00 in0.0 mm 0.00 in0.0 mm
05:30 AM 75.4°F24.1°C 72.3°F22.4°C 90% Calm Calm -- 29.97 in1014.9 mb - 0.00 in0.0 mm 0.00 in0.0 mm
05:40 AM 75.5°F24.2°C 72.4°F22.4°C 90% Calm Calm 1.2 mph1.9 kmh 29.97 in1014.9 mb - 0.00 in0.0 mm 0.00 in0.0 mm
05:50 AM 75.6°F24.2°C 72.5°F22.5°C 90% 2.3 mph SE3.7 kmh SE 3.5 mph5.6 kmh 29.97 in1014.9 mb - 0.00 in0.0 mm 0.00 in0.0 mm
06:00 AM 75.8°F24.3°C 72.3°F22.4°C 89% 3.5 mph SE5.6 kmh SE 4.6 mph7.4 kmh 29.97 in1014.9 mb - 0.00 in0.0 mm 0.00 in0.0 mm
06:10 AM 75.9°F24.4°C 72.4°F22.4°C 89% 1.2 mph SE1.9 kmh SE 2.3 mph3.7 kmh 29.98 in1015.2 mb - 0.00 in0.0 mm 0.00 in0.0 mm
06:20 AM 76.0°F24.4°C 72.5°F22.5°C 89% 1.2 mph SE1.9 kmh SE 3.5 mph5.6 kmh 29.98 in1015.2 mb - 0.00 in0.0 mm 0.00 in0.0 mm
06:30 AM 76.1°F24.5°C 72.3°F22.4°C 88% 1.2 mph SE1.9 kmh SE 1.2 mph1.9 kmh 29.98 in1015.2 mb - 0.00 in0.0 mm 0.00 in0.0 mm
06:40 AM 76.4°F24.7°C 72.9°F22.7°C 89% 2.3 mph ESE3.7 kmh ESE 3.5 mph5.6 kmh 29.98 in1015.2 mb - 0.00 in0.0 mm 0.00 in0.0 mm
06:50 AM 76.7°F24.8°C 72.9°F22.7°C 88% 2.3 mph E3.7 kmh E 4.6 mph7.4 kmh 29.99 in1015.6 mb - 0.00 in0.0 mm 0.00 in0.0 mm
07:00 AM 76.9°F24.9°C 73.1°F22.8°C 88% 2.3 mph ESE3.7 kmh ESE 3.5 mph5.6 kmh 29.99 in1015.6 mb - 0.00 in0.0 mm 0.00 in0.0 mm
07:10 AM 77.1°F25.1°C 73.2°F22.9°C 88% 2.3 mph ESE3.7 kmh ESE 4.6 mph7.4 kmh 29.99 in1015.6 mb - 0.00 in0.0 mm 0.00 in0.0 mm
07:20 AM 77.2°F25.1°C 73.4°F23.0°C 88% 2.3 mph ESE3.7 kmh ESE 3.5 mph5.6 kmh 29.99 in1015.6 mb - 0.00 in0.0 mm 0.00 in0.0 mm
07:30 AM 77.4°F25.2°C 73.2°F22.9°C 87% 3.5 mph SE5.6 kmh SE 5.8 mph9.3 kmh 29.99 in1015.6 mb - 0.00 in0.0 mm 0.00 in0.0 mm
07:40 AM 77.7°F25.4°C 73.5°F23.1°C 87% 5.8 mph SE9.3 kmh SE 8.1 mph13.0 kmh 30.00 in1015.9 mb - 0.00 in0.0 mm 0.00 in0.0 mm
07:50 AM 78.0°F25.6°C 73.5°F23.1°C 86% 3.5 mph SE5.6 kmh SE 4.6 mph7.4 kmh 29.99 in1015.6 mb - 0.00 in0.0 mm 0.00 in0.0 mm
08:00 AM 78.4°F25.8°C 73.9°F23.3°C 86% 2.3 mph SE3.7 kmh SE 4.6 mph7.4 kmh 30.00 in1015.9 mb - 0.00 in0.0 mm 0.00 in0.0 mm
08:10 AM 78.9°F26.1°C 74.4°F23.6°C 86% 2.3 mph SE3.7 kmh SE 4.6 mph7.4 kmh 30.00 in1015.9 mb - 0.00 in0.0 mm 0.00 in0.0 mm
08:20 AM 80.1°F26.7°C 74.9°F23.8°C 84% 2.3 mph ESE3.7 kmh ESE 5.8 mph9.3 kmh 30.00 in1015.9 mb - 0.00 in0.0 mm 0.00 in0.0 mm
08:30 AM 81.1°F27.3°C 75.0°F23.9°C 82% 1.2 mph SE1.9 kmh SE 5.8 mph9.3 kmh 30.00 in1015.9 mb - 0.00 in0.0 mm 0.00 in0.0 mm
08:40 AM 81.8°F27.7°C 75.4°F24.1°C 81% 1.2 mph SE1.9 kmh SE 2.3 mph3.7 kmh 30.00 in1015.9 mb - 0.00 in0.0 mm 0.00 in0.0 mm
08:50 AM 83.0°F28.3°C 75.5°F24.2°C 78% 2.3 mph SE3.7 kmh SE 6.9 mph11.1 kmh 30.00 in1015.9 mb - 0.00 in0.0 mm 0.00 in0.0 mm
09:00 AM 83.6°F28.7°C 74.9°F23.8°C 75% 2.3 mph S3.7 kmh S 4.6 mph7.4 kmh 30.00 in1015.9 mb - 0.00 in0.0 mm 0.00 in0.0 mm
09:10 AM 84.0°F28.9°C 74.4°F23.6°C 73% 2.3 mph SE3.7 kmh SE 3.5 mph5.6 kmh 30.00 in1015.9 mb - 0.00 in0.0 mm 0.00 in0.0 mm
09:20 AM 84.1°F28.9°C 74.9°F23.8°C 74% 1.2 mph SE1.9 kmh SE -- 30.00 in1015.9 mb - 0.00 in0.0 mm 0.00 in0.0 mm
09:30 AM 85.1°F29.5°C 75.0°F23.9°C 72% 1.2 mph SSE1.9 kmh SSE 5.8 mph9.3 kmh 30.00 in1015.9 mb - 0.00 in0.0 mm 0.00 in0.0 mm
09:40 AM 85.9°F29.9°C 75.0°F23.9°C 70% 1.2 mph SSW1.9 kmh SSW 3.5 mph5.6 kmh 30.00 in1015.9 mb - 0.00 in0.0 mm 0.00 in0.0 mm
09:50 AM 86.7°F30.4°C 75.3°F24.1°C 69% 3.5 mph SSW5.6 kmh SSW 5.8 mph9.3 kmh 30.00 in1015.9 mb - 0.00 in0.0 mm 0.00 in0.0 mm
10:00 AM 87.1°F30.6°C 74.8°F23.8°C 67% 2.3 mph S3.7 kmh S 6.9 mph11.1 kmh 29.99 in1015.6 mb - 0.00 in0.0 mm 0.00 in0.0 mm
10:10 AM 87.9°F31.1°C 73.7°F23.2°C 63% 3.5 mph S5.6 kmh S 4.6 mph7.4 kmh 30.00 in1015.9 mb - 0.00 in0.0 mm 0.00 in0.0 mm
10:20 AM 88.3°F31.3°C 74.1°F23.4°C 63% 4.6 mph S7.4 kmh S 8.1 mph13.0 kmh 30.00 in1015.9 mb - 0.00 in0.0 mm 0.00 in0.0 mm
10:30 AM 88.8°F31.6°C 74.6°F23.7°C 63% 3.5 mph S5.6 kmh S 4.6 mph7.4 kmh 29.99 in1015.6 mb - 0.00 in0.0 mm 0.00 in0.0 mm
10:40 AM 89.1°F31.7°C 73.9°F23.3°C 61% 1.2 mph SSE1.9 kmh SSE 2.3 mph3.7 kmh 29.99 in1015.6 mb - 0.00 in0.0 mm 0.00 in0.0 mm
10:50 AM 89.8°F32.1°C 75.0°F23.9°C 62% 1.2 mph SSE1.9 kmh SSE 4.6 mph7.4 kmh 29.99 in1015.6 mb - 0.00 in0.0 mm 0.00 in0.0 mm
11:00 AM 90.4°F32.4°C 74.6°F23.7°C 60% 2.3 mph S3.7 kmh S 4.6 mph7.4 kmh 29.99 in1015.6 mb - 0.00 in0.0 mm 0.00 in0.0 mm
11:10 AM 91.5°F33.1°C 74.1°F23.4°C 57% 5.8 mph SSW9.3 kmh SSW 11.5 mph18.5 kmh 29.99 in1015.6 mb - 0.00 in0.0 mm 0.00 in0.0 mm
11:20 AM 91.3°F32.9°C 73.9°F23.3°C 57% Calm Calm -- 29.99 in1015.6 mb - 0.00 in0.0 mm 0.00 in0.0 mm
11:30 AM 91.9°F33.3°C 72.9°F22.7°C 54% 2.3 mph S3.7 kmh S 2.3 mph3.7 kmh 29.98 in1015.2 mb - 0.00 in0.0 mm 0.00 in0.0 mm
11:40 AM 91.9°F33.3°C 72.9°F22.7°C 54% 6.9 mph SSE11.1 kmh SSE 8.1 mph13.0 kmh 29.97 in1014.9 mb - 0.00 in0.0 mm 0.00 in0.0 mm
11:50 AM 91.8°F33.2°C 71.7°F22.1°C 52% 2.3 mph SSE3.7 kmh SSE 2.3 mph3.7 kmh 29.97 in1014.9 mb - 0.00 in0.0 mm 0.00 in0.0 mm
12:00 PM 92.2°F33.4°C 72.0°F22.2°C 52% 4.6 mph SE7.4 kmh SE 6.9 mph11.1 kmh 29.96 in1014.6 mb - 0.00 in0.0 mm 0.00 in0.0 mm
12:10 PM 93.0°F33.9°C 72.8°F22.7°C 52% 1.2 mph SE1.9 kmh SE 6.9 mph11.1 kmh 29.96 in1014.6 mb - 0.00 in0.0 mm 0.00 in0.0 mm
12:20 PM 92.8°F33.8°C 72.0°F22.2°C 51% 2.3 mph SSW3.7 kmh SSW 9.2 mph14.8 kmh 29.95 in1014.2 mb - 0.00 in0.0 mm 0.00 in0.0 mm
12:30 PM 93.3°F34.1°C 73.0°F22.8°C 52% 4.6 mph WSW7.4 kmh WSW 6.9 mph11.1 kmh 29.95 in1014.2 mb - 0.00 in0.0 mm 0.00 in0.0 mm
12:40 PM 93.7°F34.3°C 73.4°F23.0°C 52% 4.6 mph E7.4 kmh E 9.2 mph14.8 kmh 29.95 in1014.2 mb - 0.00 in0.0 mm 0.00 in0.0 mm
12:50 PM 93.7°F34.3°C 72.3°F22.4°C 50% 9.2 mph SSE14.8 kmh SSE 11.5 mph18.5 kmh 29.95 in1014.2 mb - 0.00 in0.0 mm 0.00 in0.0 mm
01:00 PM 94.2°F34.6°C 70.9°F21.6°C 47% 5.8 mph SE9.3 kmh SE 8.1 mph13.0 kmh 29.94 in1013.9 mb - 0.00 in0.0 mm 0.00 in0.0 mm
01:10 PM 94.9°F34.9°C 70.9°F21.6°C 46% 6.9 mph S11.1 kmh S 10.4 mph16.7 kmh 29.93 in1013.5 mb - 0.00 in0.0 mm 0.00 in0.0 mm
01:20 PM 94.7°F34.8°C 70.1°F21.2°C 45% 3.5 mph S5.6 kmh S 3.5 mph5.6 kmh 29.93 in1013.5 mb - 0.00 in0.0 mm 0.00 in0.0 mm
01:30 PM 94.6°F34.8°C 68.6°F20.3°C 43% 1.2 mph SE1.9 kmh SE 1.2 mph1.9 kmh 29.93 in1013.5 mb - 0.00 in0.0 mm 0.00 in0.0 mm
01:40 PM 94.9°F34.9°C 70.9°F21.6°C 46% 4.6 mph SSW7.4 kmh SSW 3.5 mph5.6 kmh 29.93 in1013.5 mb - 0.00 in0.0 mm 0.00 in0.0 mm
01:50 PM 94.2°F34.6°C 70.2°F21.2°C 46% 5.8 mph SE9.3 kmh SE 9.2 mph14.8 kmh 29.93 in1013.5 mb - 0.00 in0.0 mm 0.00 in0.0 mm
02:00 PM 93.6°F34.2°C 69.7°F20.9°C 46% 6.9 mph SSE11.1 kmh SSE 9.2 mph14.8 kmh 29.93 in1013.5 mb - 0.00 in0.0 mm 0.00 in0.0 mm
02:10 PM 93.7°F34.3°C 69.2°F20.7°C 45% 3.5 mph S5.6 kmh S 6.9 mph11.1 kmh 29.93 in1013.5 mb - 0.00 in0.0 mm 0.00 in0.0 mm
02:20 PM 95.3°F35.2°C 69.9°F21.1°C 44% 3.5 mph S5.6 kmh S 10.4 mph16.7 kmh 29.92 in1013.2 mb - 0.00 in0.0 mm 0.00 in0.0 mm
02:30 PM 96.0°F35.6°C 69.2°F20.7°C 42% Calm Calm 3.5 mph5.6 kmh 29.92 in1013.2 mb - 0.00 in0.0 mm 0.00 in0.0 mm
02:40 PM 95.5°F35.3°C 70.8°F21.6°C 45% 3.5 mph S5.6 kmh S 6.9 mph11.1 kmh 29.92 in1013.2 mb - 0.00 in0.0 mm 0.00 in0.0 mm
02:50 PM 95.1°F35.1°C 69.8°F21.0°C 44% 3.5 mph S5.6 kmh S 3.5 mph5.6 kmh 29.91 in1012.9 mb - 0.00 in0.0 mm 0.00 in0.0 mm
03:00 PM 95.5°F35.3°C 70.8°F21.6°C 45% 6.9 mph S11.1 kmh S 6.9 mph11.1 kmh 29.91 in1012.9 mb - 0.00 in0.0 mm 0.00 in0.0 mm
03:10 PM 95.9°F35.5°C 73.7°F23.2°C 49% 8.1 mph S13.0 kmh S 11.5 mph18.5 kmh 29.91 in1012.9 mb - 0.00 in0.0 mm 0.00 in0.0 mm
03:20 PM 96.3°F35.7°C 73.4°F23.0°C 48% 5.8 mph S9.3 kmh S 10.4 mph16.7 kmh 29.89 in1012.2 mb - 0.00 in0.0 mm 0.00 in0.0 mm
03:30 PM 96.4°F35.8°C 72.2°F22.3°C 46% 1.2 mph S1.9 kmh S 5.8 mph9.3 kmh 29.89 in1012.2 mb - 0.00 in0.0 mm 0.00 in0.0 mm
03:40 PM 96.3°F35.7°C 72.2°F22.3°C 46% 2.3 mph S3.7 kmh S 3.5 mph5.6 kmh 29.89 in1012.2 mb - 0.00 in0.0 mm 0.00 in0.0 mm
03:50 PM 96.4°F35.8°C 71.6°F22.0°C 45% 2.3 mph S3.7 kmh S 8.1 mph13.0 kmh 29.89 in1012.2 mb - 0.00 in0.0 mm 0.00 in0.0 mm
04:00 PM 96.2°F35.7°C 70.8°F21.6°C 44% 1.2 mph S1.9 kmh S 3.5 mph5.6 kmh 29.88 in1011.9 mb - 0.00 in0.0 mm 0.00 in0.0 mm
04:10 PM 95.4°F35.2°C 70.7°F21.5°C 45% 3.5 mph ENE5.6 kmh ENE 3.5 mph5.6 kmh 29.88 in1011.9 mb - 0.00 in0.0 mm 0.00 in0.0 mm
04:20 PM 95.2°F35.1°C 71.8°F22.1°C 47% 3.5 mph SSW5.6 kmh SSW 6.9 mph11.1 kmh 29.88 in1011.9 mb - 0.00 in0.0 mm 0.00 in0.0 mm
04:30 PM 95.3°F35.2°C 72.5°F22.5°C 48% 5.8 mph S9.3 kmh S 9.2 mph14.8 kmh 29.88 in1011.9 mb - 0.00 in0.0 mm 0.00 in0.0 mm
04:40 PM 95.5°F35.3°C 72.7°F22.6°C 48% 4.6 mph S7.4 kmh S 8.1 mph13.0 kmh 29.87 in1011.5 mb - 0.00 in0.0 mm 0.00 in0.0 mm
04:50 PM 95.2°F35.1°C 72.4°F22.4°C 48% 6.9 mph SSE11.1 kmh SSE 11.5 mph18.5 kmh 29.88 in1011.9 mb - 0.00 in0.0 mm 0.00 in0.0 mm
05:00 PM 94.8°F34.9°C 71.4°F21.9°C 47% 5.8 mph S9.3 kmh S 11.5 mph18.5 kmh 29.88 in1011.9 mb - 0.00 in0.0 mm 0.00 in0.0 mm
05:10 PM 94.4°F34.7°C 71.7°F22.1°C 48% 8.1 mph S13.0 kmh S 11.5 mph18.5 kmh 29.87 in1011.5 mb - 0.00 in0.0 mm 0.00 in0.0 mm
05:20 PM 93.9°F34.4°C 71.2°F21.8°C 48% 6.9 mph SSE11.1 kmh SSE 6.9 mph11.1 kmh 29.87 in1011.5 mb - 0.00 in0.0 mm 0.00 in0.0 mm
05:30 PM 93.6°F34.2°C 71.0°F21.7°C 48% 3.5 mph S5.6 kmh S 8.1 mph13.0 kmh 29.87 in1011.5 mb - 0.00 in0.0 mm 0.00 in0.0 mm
05:40 PM 93.4°F34.1°C 71.4°F21.9°C 49% 4.6 mph S7.4 kmh S 4.6 mph7.4 kmh 29.87 in1011.5 mb - 0.00 in0.0 mm 0.00 in0.0 mm
05:50 PM 93.3°F34.1°C 70.7°F21.5°C 48% 6.9 mph SSE11.1 kmh SSE 9.2 mph14.8 kmh 29.87 in1011.5 mb - 0.00 in0.0 mm 0.00 in0.0 mm
06:00 PM 93.1°F33.9°C 71.1°F21.7°C 49% 5.8 mph SE9.3 kmh SE 11.5 mph18.5 kmh 29.87 in1011.5 mb - 0.00 in0.0 mm 0.00 in0.0 mm
06:10 PM 92.9°F33.8°C 70.9°F21.6°C 49% 5.8 mph SE9.3 kmh SE 11.5 mph18.5 kmh 29.88 in1011.9 mb - 0.00 in0.0 mm 0.00 in0.0 mm
06:20 PM 92.4°F33.6°C 73.3°F22.9°C 54% 5.8 mph SE9.3 kmh SE 11.5 mph18.5 kmh 29.88 in1011.9 mb - 0.00 in0.0 mm 0.00 in0.0 mm
06:30 PM 91.6°F33.1°C 73.1°F22.8°C 55% 5.8 mph SE9.3 kmh SE 9.2 mph14.8 kmh 29.88 in1011.9 mb - 0.00 in0.0 mm 0.00 in0.0 mm
06:40 PM 90.7°F32.6°C 73.3°F22.9°C 57% 5.8 mph SE9.3 kmh SE 9.2 mph14.8 kmh 29.88 in1011.9 mb - 0.00 in0.0 mm 0.00 in0.0 mm
06:50 PM 90.0°F32.2°C 73.2°F22.9°C 58% 5.8 mph SE9.3 kmh SE 8.1 mph13.0 kmh 29.88 in1011.9 mb - 0.00 in0.0 mm 0.00 in0.0 mm
07:00 PM 89.6°F32.0°C 73.3°F22.9°C 59% 6.9 mph SE11.1 kmh SE 8.1 mph13.0 kmh 29.88 in1011.9 mb - 0.00 in0.0 mm 0.00 in0.0 mm
07:10 PM 89.3°F31.8°C 73.1°F22.8°C 59% 5.8 mph SE9.3 kmh SE 8.1 mph13.0 kmh 29.88 in1011.9 mb - 0.00 in0.0 mm 0.00 in0.0 mm
07:20 PM 89.0°F31.7°C 73.3°F22.9°C 60% 8.1 mph SE13.0 kmh SE 11.5 mph18.5 kmh 29.88 in1011.9 mb - 0.00 in0.0 mm 0.00 in0.0 mm
07:30 PM 88.6°F31.4°C 72.9°F22.7°C 60% 5.8 mph SE9.3 kmh SE 9.2 mph14.8 kmh 29.88 in1011.9 mb - 0.00 in0.0 mm 0.00 in0.0 mm
07:40 PM 88.3°F31.3°C 73.1°F22.8°C 61% 3.5 mph SSE5.6 kmh SSE 4.6 mph7.4 kmh 29.88 in1011.9 mb - 0.00 in0.0 mm 0.00 in0.0 mm
07:50 PM 87.9°F31.1°C 72.8°F22.7°C 61% 4.6 mph ESE7.4 kmh ESE 5.8 mph9.3 kmh 29.89 in1012.2 mb - 0.00 in0.0 mm 0.00 in0.0 mm
08:00 PM 87.8°F31.0°C 73.2°F22.9°C 62% 4.6 mph SE7.4 kmh SE 8.1 mph13.0 kmh 29.89 in1012.2 mb - 0.00 in0.0 mm 0.00 in0.0 mm
08:10 PM 87.6°F30.9°C 73.0°F22.8°C 62% 4.6 mph SE7.4 kmh SE 5.8 mph9.3 kmh 29.89 in1012.2 mb - 0.00 in0.0 mm 0.00 in0.0 mm
08:20 PM 87.3°F30.7°C 72.7°F22.6°C 62% 5.8 mph SE9.3 kmh SE 8.1 mph13.0 kmh 29.89 in1012.2 mb - 0.00 in0.0 mm 0.00 in0.0 mm
08:30 PM 87.1°F30.6°C 73.4°F23.0°C 64% 9.2 mph SE14.8 kmh SE 11.5 mph18.5 kmh 29.90 in1012.5 mb - 0.00 in0.0 mm 0.00 in0.0 mm
08:40 PM 86.7°F30.4°C 73.5°F23.1°C 65% 6.9 mph SE11.1 kmh SE 8.1 mph13.0 kmh 29.90 in1012.5 mb - 0.00 in0.0 mm 0.00 in0.0 mm
08:50 PM 86.3°F30.2°C 73.6°F23.1°C 66% 5.8 mph SE9.3 kmh SE 9.2 mph14.8 kmh 29.90 in1012.5 mb - 0.00 in0.0 mm 0.00 in0.0 mm
09:00 PM 86.0°F30.0°C 73.3°F22.9°C 66% 5.8 mph ESE9.3 kmh ESE 9.2 mph14.8 kmh 29.92 in1013.2 mb - 0.00 in0.0 mm 0.00 in0.0 mm
09:10 PM 85.6°F29.8°C 73.4°F23.0°C 67% 3.5 mph ESE5.6 kmh ESE 8.1 mph13.0 kmh 29.92 in1013.2 mb - 0.00 in0.0 mm 0.00 in0.0 mm
09:20 PM 85.1°F29.5°C 73.3°F22.9°C 68% 5.8 mph ESE9.3 kmh ESE 8.1 mph13.0 kmh 29.93 in1013.5 mb - 0.00 in0.0 mm 0.00 in0.0 mm
09:30 PM 84.5°F29.2°C 72.4°F22.4°C 67% 4.6 mph ESE7.4 kmh ESE 11.5 mph18.5 kmh 29.93 in1013.5 mb - 0.00 in0.0 mm 0.00 in0.0 mm
09:40 PM 84.2°F29.0°C 72.9°F22.7°C 69% 6.9 mph ESE11.1 kmh ESE 8.1 mph13.0 kmh 29.93 in1013.5 mb - 0.00 in0.0 mm 0.00 in0.0 mm
09:50 PM 83.8°F28.8°C 72.6°F22.6°C 69% 9.2 mph SE14.8 kmh SE 13.8 mph22.2 kmh 29.93 in1013.5 mb - 0.00 in0.0 mm 0.00 in0.0 mm
10:00 PM 83.4°F28.6°C 72.6°F22.6°C 70% 5.8 mph SE9.3 kmh SE 8.1 mph13.0 kmh 29.93 in1013.5 mb - 0.00 in0.0 mm 0.00 in0.0 mm
10:10 PM 83.1°F28.4°C 72.7°F22.6°C 71% 4.6 mph ESE7.4 kmh ESE 8.1 mph13.0 kmh 29.93 in1013.5 mb - 0.00 in0.0 mm 0.00 in0.0 mm
10:20 PM 82.9°F28.3°C 72.9°F22.7°C 72% 4.6 mph SE7.4 kmh SE 6.9 mph11.1 kmh 29.93 in1013.5 mb - 0.00 in0.0 mm 0.00 in0.0 mm
10:30 PM 82.7°F28.2°C 73.1°F22.8°C 73% 4.6 mph SE7.4 kmh SE 6.9 mph11.1 kmh 29.93 in1013.5 mb - 0.00 in0.0 mm 0.00 in0.0 mm
10:40 PM 82.4°F28.0°C 73.3°F22.9°C 74% 1.2 mph SE1.9 kmh SE 3.5 mph5.6 kmh 29.93 in1013.5 mb - 0.00 in0.0 mm 0.00 in0.0 mm
10:50 PM 82.1°F27.8°C 73.0°F22.8°C 74% 3.5 mph ESE5.6 kmh ESE 5.8 mph9.3 kmh 29.93 in1013.5 mb - 0.00 in0.0 mm 0.00 in0.0 mm
11:00 PM 81.9°F27.7°C 73.2°F22.9°C 75% 3.5 mph SE5.6 kmh SE 5.8 mph9.3 kmh 29.93 in1013.5 mb - 0.00 in0.0 mm 0.00 in0.0 mm
11:10 PM 81.6°F27.6°C 72.9°F22.7°C 75% 3.5 mph SE5.6 kmh SE 4.6 mph7.4 kmh 29.92 in1013.2 mb - 0.00 in0.0 mm 0.00 in0.0 mm
11:20 PM 81.5°F27.5°C 72.8°F22.7°C 75% 4.6 mph SE7.4 kmh SE 6.9 mph11.1 kmh 29.92 in1013.2 mb - 0.00 in0.0 mm 0.00 in0.0 mm
11:30 PM 81.4°F27.4°C 72.7°F22.6°C 75% 4.6 mph SSE7.4 kmh SSE 8.1 mph13.0 kmh 29.92 in1013.2 mb - 0.00 in0.0 mm 0.00 in0.0 mm
11:40 PM 81.4°F27.4°C 72.7°F22.6°C 75% 3.5 mph SSE5.6 kmh SSE 5.8 mph9.3 kmh 29.92 in1013.2 mb - 0.00 in0.0 mm 0.00 in0.0 mm
11:50 PM 81.4°F27.4°C 72.7°F22.6°C 75% 4.6 mph SE7.4 kmh SE 6.9 mph11.1 kmh 29.92 in1013.2 mb - 0.00 in0.0 mm 0.00 in0.0 mm